sensor_id;sensor_type;location;lat;lon;timestamp;P1;durP1;ratioP1;P2;durP2;ratioP2
19587;SDS011;9940;47.252;8.696;2023-04-16T00:00:20;1.00;;;0.90;;
19587;SDS011;9940;47.252;8.696;2023-04-16T00:02:46;1.75;;;0.88;;
19587;SDS011;9940;47.252;8.696;2023-04-16T00:05:12;1.88;;;0.90;;
19587;SDS011;9940;47.252;8.696;2023-04-16T00:07:38;1.58;;;0.80;;
19587;SDS011;9940;47.252;8.696;2023-04-16T00:10:05;2.30;;;0.95;;
19587;SDS011;9940;47.252;8.696;2023-04-16T00:12:33;2.40;;;1.00;;
19587;SDS011;9940;47.252;8.696;2023-04-16T00:15:00;1.13;;;0.88;;
19587;SDS011;9940;47.252;8.696;2023-04-16T00:17:26;1.80;;;0.90;;
19587;SDS011;9940;47.252;8.696;2023-04-16T00:19:54;2.22;;;0.93;;
19587;SDS011;9940;47.252;8.696;2023-04-16T00:22:19;0.80;;;0.80;;
19587;SDS011;9940;47.252;8.696;2023-04-16T00:24:45;0.88;;;0.88;;
19587;SDS011;9940;47.252;8.696;2023-04-16T00:27:10;2.20;;;0.90;;
19587;SDS011;9940;47.252;8.696;2023-04-16T00:29:38;1.33;;;1.00;;
19587;SDS011;9940;47.252;8.696;2023-04-16T00:32:04;2.05;;;1.13;;
19587;SDS011;9940;47.252;8.696;2023-04-16T00:34:33;1.55;;;1.20;;
19587;SDS011;9940;47.252;8.696;2023-04-16T00:37:00;2.47;;;1.40;;
19587;SDS011;9940;47.252;8.696;2023-04-16T00:39:29;2.33;;;1.13;;
19587;SDS011;9940;47.252;8.696;2023-04-16T00:41:54;1.52;;;1.27;;
19587;SDS011;9940;47.252;8.696;2023-04-16T00:44:22;1.55;;;1.30;;
19587;SDS011;9940;47.252;8.696;2023-04-16T00:46:53;1.90;;;1.30;;
19587;SDS011;9940;47.252;8.696;2023-04-16T00:49:22;2.60;;;1.60;;
19587;SDS011;9940;47.252;8.696;2023-04-16T00:51:49;2.17;;;1.30;;
19587;SDS011;9940;47.252;8.696;2023-04-16T00:54:19;2.25;;;1.52;;
19587;SDS011;9940;47.252;8.696;2023-04-16T00:56:46;1.33;;;1.20;;
19587;SDS011;9940;47.252;8.696;2023-04-16T00:59:13;3.33;;;1.60;;
19587;SDS011;9940;47.252;8.696;2023-04-16T01:01:39;2.03;;;1.30;;
19587;SDS011;9940;47.252;8.696;2023-04-16T01:04:05;2.70;;;1.35;;
19587;SDS011;9940;47.252;8.696;2023-04-16T01:06:33;2.55;;;1.55;;
19587;SDS011;9940;47.252;8.696;2023-04-16T01:09:06;3.88;;;1.70;;
19587;SDS011;9940;47.252;8.696;2023-04-16T01:11:31;3.22;;;1.60;;
19587;SDS011;9940;47.252;8.696;2023-04-16T01:13:57;2.55;;;1.50;;
19587;SDS011;9940;47.252;8.696;2023-04-16T01:16:31;2.00;;;1.80;;
19587;SDS011;9940;47.252;8.696;2023-04-16T01:18:56;3.65;;;1.60;;
19587;SDS011;9940;47.252;8.696;2023-04-16T01:21:22;3.60;;;1.38;;
19587;SDS011;9940;47.252;8.696;2023-04-16T01:23:50;1.83;;;1.58;;
19587;SDS011;9940;47.252;8.696;2023-04-16T01:26:18;3.50;;;1.42;;
19587;SDS011;9940;47.252;8.696;2023-04-16T01:28:48;1.65;;;1.35;;
19587;SDS011;9940;47.252;8.696;2023-04-16T01:31:14;1.70;;;1.30;;
19587;SDS011;9940;47.252;8.696;2023-04-16T01:33:40;3.05;;;1.65;;
19587;SDS011;9940;47.252;8.696;2023-04-16T01:36:08;2.42;;;1.45;;
19587;SDS011;9940;47.252;8.696;2023-04-16T01:38:36;1.50;;;1.30;;
19587;SDS011;9940;47.252;8.696;2023-04-16T01:41:04;1.55;;;1.45;;
19587;SDS011;9940;47.252;8.696;2023-04-16T01:43:32;1.58;;;1.48;;
19587;SDS011;9940;47.252;8.696;2023-04-16T01:46:19;2.10;;;1.38;;
19587;SDS011;9940;47.252;8.696;2023-04-16T01:48:53;3.53;;;1.38;;
19587;SDS011;9940;47.252;8.696;2023-04-16T01:51:21;2.17;;;1.50;;
19587;SDS011;9940;47.252;8.696;2023-04-16T01:53:50;1.75;;;1.33;;
19587;SDS011;9940;47.252;8.696;2023-04-16T01:56:15;2.70;;;1.50;;
19587;SDS011;9940;47.252;8.696;2023-04-16T01:58:41;1.58;;;1.40;;
19587;SDS011;9940;47.252;8.696;2023-04-16T02:01:10;2.55;;;1.75;;
19587;SDS011;9940;47.252;8.696;2023-04-16T02:03:36;1.75;;;1.35;;
19587;SDS011;9940;47.252;8.696;2023-04-16T02:06:02;2.30;;;1.73;;
19587;SDS011;9940;47.252;8.696;2023-04-16T02:08:30;2.38;;;1.60;;
19587;SDS011;9940;47.252;8.696;2023-04-16T02:10:59;1.70;;;1.30;;
19587;SDS011;9940;47.252;8.696;2023-04-16T02:13:25;1.23;;;1.13;;
19587;SDS011;9940;47.252;8.696;2023-04-16T02:15:50;1.75;;;1.38;;
19587;SDS011;9940;47.252;8.696;2023-04-16T02:18:17;2.13;;;1.60;;
19587;SDS011;9940;47.252;8.696;2023-04-16T02:20:45;2.22;;;1.42;;
19587;SDS011;9940;47.252;8.696;2023-04-16T02:23:14;1.90;;;1.42;;
19587;SDS011;9940;47.252;8.696;2023-04-16T02:25:40;2.30;;;1.33;;
19587;SDS011;9940;47.252;8.696;2023-04-16T02:28:10;1.98;;;1.63;;
19587;SDS011;9940;47.252;8.696;2023-04-16T02:30:37;1.98;;;1.30;;
19587;SDS011;9940;47.252;8.696;2023-04-16T02:33:06;1.52;;;1.33;;
19587;SDS011;9940;47.252;8.696;2023-04-16T02:35:35;1.63;;;1.30;;
19587;SDS011;9940;47.252;8.696;2023-04-16T02:38:02;2.20;;;1.60;;
19587;SDS011;9940;47.252;8.696;2023-04-16T02:40:29;1.35;;;1.17;;
19587;SDS011;9940;47.252;8.696;2023-04-16T02:42:55;1.55;;;1.42;;
19587;SDS011;9940;47.252;8.696;2023-04-16T02:45:21;2.80;;;1.70;;
19587;SDS011;9940;47.252;8.696;2023-04-16T02:47:50;2.25;;;1.45;;
19587;SDS011;9940;47.252;8.696;2023-04-16T02:50:16;3.03;;;1.65;;
19587;SDS011;9940;47.252;8.696;2023-04-16T02:52:42;2.03;;;1.50;;
19587;SDS011;9940;47.252;8.696;2023-04-16T02:55:08;3.03;;;1.50;;
19587;SDS011;9940;47.252;8.696;2023-04-16T02:57:34;2.42;;;1.70;;
19587;SDS011;9940;47.252;8.696;2023-04-16T03:00:00;2.72;;;1.67;;
19587;SDS011;9940;47.252;8.696;2023-04-16T03:02:28;2.50;;;1.42;;
19587;SDS011;9940;47.252;8.696;2023-04-16T03:04:54;2.22;;;1.45;;
19587;SDS011;9940;47.252;8.696;2023-04-16T03:07:19;1.63;;;1.40;;
19587;SDS011;9940;47.252;8.696;2023-04-16T03:09:45;2.47;;;1.42;;
19587;SDS011;9940;47.252;8.696;2023-04-16T03:12:11;2.00;;;1.60;;
19587;SDS011;9940;47.252;8.696;2023-04-16T03:14:39;1.73;;;1.40;;
19587;SDS011;9940;47.252;8.696;2023-04-16T03:17:07;1.55;;;1.40;;
19587;SDS011;9940;47.252;8.696;2023-04-16T03:19:33;2.67;;;1.80;;
19587;SDS011;9940;47.252;8.696;2023-04-16T03:21:58;1.75;;;1.55;;
19587;SDS011;9940;47.252;8.696;2023-04-16T03:24:24;2.15;;;1.70;;
19587;SDS011;9940;47.252;8.696;2023-04-16T03:26:53;2.03;;;1.50;;
19587;SDS011;9940;47.252;8.696;2023-04-16T03:29:21;1.73;;;1.42;;
19587;SDS011;9940;47.252;8.696;2023-04-16T03:31:49;3.10;;;1.38;;
19587;SDS011;9940;47.252;8.696;2023-04-16T03:34:17;3.03;;;1.23;;
19587;SDS011;9940;47.252;8.696;2023-04-16T03:36:42;2.97;;;1.58;;
19587;SDS011;9940;47.252;8.696;2023-04-16T03:39:08;3.35;;;1.25;;
19587;SDS011;9940;47.252;8.696;2023-04-16T03:41:33;1.30;;;1.10;;
19587;SDS011;9940;47.252;8.696;2023-04-16T03:43:59;1.95;;;1.58;;
19587;SDS011;9940;47.252;8.696;2023-04-16T03:46:25;1.65;;;1.40;;
19587;SDS011;9940;47.252;8.696;2023-04-16T03:48:50;1.20;;;1.10;;
19587;SDS011;9940;47.252;8.696;2023-04-16T03:51:16;1.55;;;1.40;;
19587;SDS011;9940;47.252;8.696;2023-04-16T03:53:46;2.88;;;1.40;;
19587;SDS011;9940;47.252;8.696;2023-04-16T03:56:15;2.05;;;1.48;;
19587;SDS011;9940;47.252;8.696;2023-04-16T03:58:43;1.45;;;1.35;;
19587;SDS011;9940;47.252;8.696;2023-04-16T04:01:11;1.35;;;1.25;;
19587;SDS011;9940;47.252;8.696;2023-04-16T04:03:44;1.33;;;1.20;;
19587;SDS011;9940;47.252;8.696;2023-04-16T04:06:11;1.10;;;1.10;;
19587;SDS011;9940;47.252;8.696;2023-04-16T04:08:37;1.77;;;1.30;;
19587;SDS011;9940;47.252;8.696;2023-04-16T04:11:07;2.10;;;1.40;;
19587;SDS011;9940;47.252;8.696;2023-04-16T04:13:33;2.53;;;1.60;;
19587;SDS011;9940;47.252;8.696;2023-04-16T04:15:58;1.48;;;1.38;;
19587;SDS011;9940;47.252;8.696;2023-04-16T04:18:26;2.92;;;1.48;;
19587;SDS011;9940;47.252;8.696;2023-04-16T04:20:52;2.33;;;1.38;;
19587;SDS011;9940;47.252;8.696;2023-04-16T04:23:18;2.50;;;1.60;;
19587;SDS011;9940;47.252;8.696;2023-04-16T04:25:46;1.42;;;1.33;;
19587;SDS011;9940;47.252;8.696;2023-04-16T04:28:11;3.20;;;1.63;;
19587;SDS011;9940;47.252;8.696;2023-04-16T04:30:39;2.80;;;1.50;;
19587;SDS011;9940;47.252;8.696;2023-04-16T04:33:10;1.83;;;1.45;;
19587;SDS011;9940;47.252;8.696;2023-04-16T04:35:37;1.75;;;1.40;;
19587;SDS011;9940;47.252;8.696;2023-04-16T04:38:08;2.42;;;1.80;;
19587;SDS011;9940;47.252;8.696;2023-04-16T04:40:35;1.88;;;1.55;;
19587;SDS011;9940;47.252;8.696;2023-04-16T04:43:01;1.60;;;1.42;;
19587;SDS011;9940;47.252;8.696;2023-04-16T04:45:27;2.13;;;1.70;;
19587;SDS011;9940;47.252;8.696;2023-04-16T04:47:55;1.42;;;1.23;;
19587;SDS011;9940;47.252;8.696;2023-04-16T04:50:20;1.98;;;1.77;;
19587;SDS011;9940;47.252;8.696;2023-04-16T04:52:48;2.47;;;1.50;;
19587;SDS011;9940;47.252;8.696;2023-04-16T04:55:16;2.00;;;1.45;;
19587;SDS011;9940;47.252;8.696;2023-04-16T04:57:42;2.22;;;1.60;;
19587;SDS011;9940;47.252;8.696;2023-04-16T05:00:08;4.85;;;1.90;;
19587;SDS011;9940;47.252;8.696;2023-04-16T05:02:34;3.55;;;1.35;;
19587;SDS011;9940;47.252;8.696;2023-04-16T05:05:02;2.42;;;1.35;;
19587;SDS011;9940;47.252;8.696;2023-04-16T05:07:29;1.85;;;1.35;;
19587;SDS011;9940;47.252;8.696;2023-04-16T05:09:57;1.98;;;1.40;;
19587;SDS011;9940;47.252;8.696;2023-04-16T05:12:25;1.48;;;1.10;;
19587;SDS011;9940;47.252;8.696;2023-04-16T05:14:50;2.17;;;1.33;;
19587;SDS011;9940;47.252;8.696;2023-04-16T05:17:18;1.30;;;1.20;;
19587;SDS011;9940;47.252;8.696;2023-04-16T05:19:46;1.88;;;1.20;;
19587;SDS011;9940;47.252;8.696;2023-04-16T05:22:11;2.60;;;1.40;;
19587;SDS011;9940;47.252;8.696;2023-04-16T05:24:37;1.80;;;1.42;;
19587;SDS011;9940;47.252;8.696;2023-04-16T05:27:03;1.75;;;1.38;;
19587;SDS011;9940;47.252;8.696;2023-04-16T05:29:28;1.58;;;1.13;;
19587;SDS011;9940;47.252;8.696;2023-04-16T05:31:54;3.08;;;1.70;;
19587;SDS011;9940;47.252;8.696;2023-04-16T05:34:19;4.10;;;1.33;;
19587;SDS011;9940;47.252;8.696;2023-04-16T05:36:45;2.20;;;1.20;;
19587;SDS011;9940;47.252;8.696;2023-04-16T05:39:11;1.80;;;1.30;;
19587;SDS011;9940;47.252;8.696;2023-04-16T05:41:36;1.92;;;1.02;;
19587;SDS011;9940;47.252;8.696;2023-04-16T05:44:02;1.40;;;1.17;;
19587;SDS011;9940;47.252;8.696;2023-04-16T05:46:30;1.30;;;1.05;;
19587;SDS011;9940;47.252;8.696;2023-04-16T05:48:55;1.52;;;1.02;;
19587;SDS011;9940;47.252;8.696;2023-04-16T05:51:21;2.13;;;0.98;;
19587;SDS011;9940;47.252;8.696;2023-04-16T05:53:51;1.50;;;0.90;;
19587;SDS011;9940;47.252;8.696;2023-04-16T05:56:17;0.93;;;0.80;;
19587;SDS011;9940;47.252;8.696;2023-04-16T05:58:45;0.80;;;0.77;;
19587;SDS011;9940;47.252;8.696;2023-04-16T06:01:11;2.08;;;0.73;;
19587;SDS011;9940;47.252;8.696;2023-04-16T06:03:36;0.70;;;0.60;;
19587;SDS011;9940;47.252;8.696;2023-04-16T06:06:04;0.82;;;0.50;;
19587;SDS011;9940;47.252;8.696;2023-04-16T06:08:32;1.05;;;0.65;;
19587;SDS011;9940;47.252;8.696;2023-04-16T06:11:00;0.40;;;0.40;;
19587;SDS011;9940;47.252;8.696;2023-04-16T06:13:27;0.55;;;0.40;;
19587;SDS011;9940;47.252;8.696;2023-04-16T06:15:52;0.63;;;0.30;;
19587;SDS011;9940;47.252;8.696;2023-04-16T06:18:18;0.63;;;0.50;;
19587;SDS011;9940;47.252;8.696;2023-04-16T06:20:44;0.50;;;0.50;;
19587;SDS011;9940;47.252;8.696;2023-04-16T06:23:09;0.60;;;0.30;;
19587;SDS011;9940;47.252;8.696;2023-04-16T06:25:37;0.73;;;0.30;;
19587;SDS011;9940;47.252;8.696;2023-04-16T06:28:03;0.50;;;0.50;;
19587;SDS011;9940;47.252;8.696;2023-04-16T06:30:29;0.65;;;0.50;;
19587;SDS011;9940;47.252;8.696;2023-04-16T06:32:57;0.47;;;0.40;;
19587;SDS011;9940;47.252;8.696;2023-04-16T06:35:23;0.47;;;0.43;;
19587;SDS011;9940;47.252;8.696;2023-04-16T06:37:48;0.60;;;0.43;;
19587;SDS011;9940;47.252;8.696;2023-04-16T06:40:14;0.57;;;0.50;;
19587;SDS011;9940;47.252;8.696;2023-04-16T06:42:42;0.57;;;0.40;;
19587;SDS011;9940;47.252;8.696;2023-04-16T06:45:07;0.50;;;0.50;;
19587;SDS011;9940;47.252;8.696;2023-04-16T06:47:33;0.60;;;0.60;;
19587;SDS011;9940;47.252;8.696;2023-04-16T06:50:01;0.60;;;0.50;;
19587;SDS011;9940;47.252;8.696;2023-04-16T06:52:27;0.85;;;0.80;;
19587;SDS011;9940;47.252;8.696;2023-04-16T06:54:55;0.60;;;0.60;;
19587;SDS011;9940;47.252;8.696;2023-04-16T06:57:21;1.08;;;0.85;;
19587;SDS011;9940;47.252;8.696;2023-04-16T06:59:46;0.88;;;0.80;;
19587;SDS011;9940;47.252;8.696;2023-04-16T07:02:12;0.75;;;0.75;;
19587;SDS011;9940;47.252;8.696;2023-04-16T07:04:42;0.60;;;0.60;;
19587;SDS011;9940;47.252;8.696;2023-04-16T07:07:08;2.25;;;0.68;;
19587;SDS011;9940;47.252;8.696;2023-04-16T07:09:33;0.90;;;0.75;;
19587;SDS011;9940;47.252;8.696;2023-04-16T07:12:01;0.40;;;0.40;;
19587;SDS011;9940;47.252;8.696;2023-04-16T07:14:27;0.90;;;0.60;;
19587;SDS011;9940;47.252;8.696;2023-04-16T07:16:57;0.65;;;0.65;;
19587;SDS011;9940;47.252;8.696;2023-04-16T07:19:23;0.40;;;0.40;;
19587;SDS011;9940;47.252;8.696;2023-04-16T07:21:54;0.30;;;0.30;;
19587;SDS011;9940;47.252;8.696;2023-04-16T07:24:20;0.40;;;0.40;;
19587;SDS011;9940;47.252;8.696;2023-04-16T07:26:48;0.30;;;0.30;;
19587;SDS011;9940;47.252;8.696;2023-04-16T07:29:13;0.30;;;0.22;;
19587;SDS011;9940;47.252;8.696;2023-04-16T07:31:41;0.40;;;0.40;;
19587;SDS011;9940;47.252;8.696;2023-04-16T07:34:07;0.80;;;0.38;;
19587;SDS011;9940;47.252;8.696;2023-04-16T07:36:35;0.30;;;0.30;;
19587;SDS011;9940;47.252;8.696;2023-04-16T07:39:01;0.88;;;0.47;;
19587;SDS011;9940;47.252;8.696;2023-04-16T07:41:27;0.32;;;0.32;;
19587;SDS011;9940;47.252;8.696;2023-04-16T07:43:53;0.40;;;0.38;;
19587;SDS011;9940;47.252;8.696;2023-04-16T07:46:19;0.38;;;0.38;;
19587;SDS011;9940;47.252;8.696;2023-04-16T07:48:45;0.30;;;0.30;;
19587;SDS011;9940;47.252;8.696;2023-04-16T07:51:13;0.70;;;0.47;;
19587;SDS011;9940;47.252;8.696;2023-04-16T07:53:39;2.50;;;0.45;;
19587;SDS011;9940;47.252;8.696;2023-04-16T07:56:05;0.40;;;0.40;;
19587;SDS011;9940;47.252;8.696;2023-04-16T07:58:31;0.50;;;0.32;;
19587;SDS011;9940;47.252;8.696;2023-04-16T08:00:57;0.47;;;0.40;;
19587;SDS011;9940;47.252;8.696;2023-04-16T08:03:22;0.82;;;0.45;;
19587;SDS011;9940;47.252;8.696;2023-04-16T08:05:48;0.30;;;0.30;;
19587;SDS011;9940;47.252;8.696;2023-04-16T08:08:14;0.85;;;0.60;;
19587;SDS011;9940;47.252;8.696;2023-04-16T08:10:40;2.05;;;1.20;;
19587;SDS011;9940;47.252;8.696;2023-04-16T08:13:08;1.48;;;1.00;;
19587;SDS011;9940;47.252;8.696;2023-04-16T08:15:34;0.55;;;0.55;;
19587;SDS011;9940;47.252;8.696;2023-04-16T08:18:00;0.88;;;0.70;;
19587;SDS011;9940;47.252;8.696;2023-04-16T08:20:32;0.50;;;0.40;;
19587;SDS011;9940;47.252;8.696;2023-04-16T08:22:58;0.55;;;0.55;;
19587;SDS011;9940;47.252;8.696;2023-04-16T08:25:26;0.63;;;0.52;;
19587;SDS011;9940;47.252;8.696;2023-04-16T08:27:54;0.52;;;0.45;;
19587;SDS011;9940;47.252;8.696;2023-04-16T08:30:21;0.57;;;0.52;;
19587;SDS011;9940;47.252;8.696;2023-04-16T08:32:47;0.90;;;0.50;;
19587;SDS011;9940;47.252;8.696;2023-04-16T08:35:13;0.43;;;0.43;;
19587;SDS011;9940;47.252;8.696;2023-04-16T08:37:41;0.60;;;0.60;;
19587;SDS011;9940;47.252;8.696;2023-04-16T08:40:07;0.57;;;0.43;;
19587;SDS011;9940;47.252;8.696;2023-04-16T08:42:41;0.70;;;0.70;;
19587;SDS011;9940;47.252;8.696;2023-04-16T08:45:19;1.15;;;0.90;;
19587;SDS011;9940;47.252;8.696;2023-04-16T08:47:46;0.70;;;0.70;;
19587;SDS011;9940;47.252;8.696;2023-04-16T08:50:13;1.23;;;1.00;;
19587;SDS011;9940;47.252;8.696;2023-04-16T08:52:57;4.43;;;1.02;;
19587;SDS011;9940;47.252;8.696;2023-04-16T08:55:34;2.30;;;0.90;;
19587;SDS011;9940;47.252;8.696;2023-04-16T08:58:04;1.35;;;0.55;;
19587;SDS011;9940;47.252;8.696;2023-04-16T09:00:53;0.50;;;0.50;;
19587;SDS011;9940;47.252;8.696;2023-04-16T09:03:21;0.60;;;0.60;;
19587;SDS011;9940;47.252;8.696;2023-04-16T09:05:49;1.85;;;0.68;;
19587;SDS011;9940;47.252;8.696;2023-04-16T09:08:19;0.68;;;0.68;;
19587;SDS011;9940;47.252;8.696;2023-04-16T09:10:45;1.00;;;0.73;;
19587;SDS011;9940;47.252;8.696;2023-04-16T09:13:12;0.73;;;0.60;;
19587;SDS011;9940;47.252;8.696;2023-04-16T09:15:41;0.68;;;0.60;;
19587;SDS011;9940;47.252;8.696;2023-04-16T09:18:08;0.80;;;0.60;;
19587;SDS011;9940;47.252;8.696;2023-04-16T09:20:37;1.33;;;1.23;;
19587;SDS011;9940;47.252;8.696;2023-04-16T09:23:03;0.85;;;0.80;;
19587;SDS011;9940;47.252;8.696;2023-04-16T09:25:32;1.48;;;0.80;;
19587;SDS011;9940;47.252;8.696;2023-04-16T09:28:01;0.82;;;0.70;;
19587;SDS011;9940;47.252;8.696;2023-04-16T09:30:31;1.20;;;0.77;;
19587;SDS011;9940;47.252;8.696;2023-04-16T09:35:58;0.68;;;0.68;;
19587;SDS011;9940;47.252;8.696;2023-04-16T09:38:26;0.60;;;0.60;;
19587;SDS011;9940;47.252;8.696;2023-04-16T09:41:15;0.75;;;0.70;;
19587;SDS011;9940;47.252;8.696;2023-04-16T09:44:14;0.50;;;0.50;;
19587;SDS011;9940;47.252;8.696;2023-04-16T09:46:33;0.65;;;0.65;;
19587;SDS011;9940;47.252;8.696;2023-04-16T09:49:13;0.60;;;0.57;;
19587;SDS011;9940;47.252;8.696;2023-04-16T09:51:43;0.70;;;0.70;;
19587;SDS011;9940;47.252;8.696;2023-04-16T09:54:12;0.90;;;0.80;;
19587;SDS011;9940;47.252;8.696;2023-04-16T09:56:41;2.35;;;0.95;;
19587;SDS011;9940;47.252;8.696;2023-04-16T09:59:15;1.35;;;1.00;;
19587;SDS011;9940;47.252;8.696;2023-04-16T10:01:50;0.80;;;0.80;;
19587;SDS011;9940;47.252;8.696;2023-04-16T10:04:22;0.73;;;0.73;;
19587;SDS011;9940;47.252;8.696;2023-04-16T10:07:03;0.75;;;0.75;;
19587;SDS011;9940;47.252;8.696;2023-04-16T10:09:36;1.27;;;0.95;;
19587;SDS011;9940;47.252;8.696;2023-04-16T10:12:02;1.98;;;1.10;;
19587;SDS011;9940;47.252;8.696;2023-04-16T10:14:31;1.92;;;0.80;;
19587;SDS011;9940;47.252;8.696;2023-04-16T10:16:57;0.60;;;0.60;;
19587;SDS011;9940;47.252;8.696;2023-04-16T10:19:24;0.95;;;0.95;;
19587;SDS011;9940;47.252;8.696;2023-04-16T10:21:56;1.00;;;0.90;;
19587;SDS011;9940;47.252;8.696;2023-04-16T10:24:22;1.05;;;0.90;;
19587;SDS011;9940;47.252;8.696;2023-04-16T10:26:50;1.60;;;1.30;;
19587;SDS011;9940;47.252;8.696;2023-04-16T10:29:17;1.60;;;1.13;;
19587;SDS011;9940;47.252;8.696;2023-04-16T10:31:48;1.30;;;1.17;;
19587;SDS011;9940;47.252;8.696;2023-04-16T10:34:14;1.08;;;0.93;;
19587;SDS011;9940;47.252;8.696;2023-04-16T10:36:45;1.92;;;1.13;;
19587;SDS011;9940;47.252;8.696;2023-04-16T10:39:16;1.30;;;1.20;;
19587;SDS011;9940;47.252;8.696;2023-04-16T10:41:50;1.65;;;1.30;;
19587;SDS011;9940;47.252;8.696;2023-04-16T10:44:34;1.30;;;1.20;;
19587;SDS011;9940;47.252;8.696;2023-04-16T10:47:08;1.17;;;1.08;;
19587;SDS011;9940;47.252;8.696;2023-04-16T10:49:35;1.23;;;1.13;;
19587;SDS011;9940;47.252;8.696;2023-04-16T10:52:06;1.73;;;1.17;;
19587;SDS011;9940;47.252;8.696;2023-04-16T10:54:45;1.58;;;1.23;;
19587;SDS011;9940;47.252;8.696;2023-04-16T10:57:15;1.38;;;1.10;;
19587;SDS011;9940;47.252;8.696;2023-04-16T10:59:42;1.40;;;1.30;;
19587;SDS011;9940;47.252;8.696;2023-04-16T11:02:17;1.60;;;1.35;;
19587;SDS011;9940;47.252;8.696;2023-04-16T11:04:44;1.58;;;1.17;;
19587;SDS011;9940;47.252;8.696;2023-04-16T11:14:57;1.35;;;1.10;;
19587;SDS011;9940;47.252;8.696;2023-04-16T11:17:30;1.25;;;1.15;;
19587;SDS011;9940;47.252;8.696;2023-04-16T11:20:05;1.98;;;1.10;;
19587;SDS011;9940;47.252;8.696;2023-04-16T11:22:33;1.65;;;1.20;;
19587;SDS011;9940;47.252;8.696;2023-04-16T11:25:03;1.58;;;1.40;;
19587;SDS011;9940;47.252;8.696;2023-04-16T11:27:31;1.90;;;1.40;;
19587;SDS011;9940;47.252;8.696;2023-04-16T11:30:00;1.50;;;1.33;;
19587;SDS011;9940;47.252;8.696;2023-04-16T11:32:31;1.58;;;1.38;;
19587;SDS011;9940;47.252;8.696;2023-04-16T11:34:59;1.50;;;1.23;;
19587;SDS011;9940;47.252;8.696;2023-04-16T11:37:33;1.30;;;1.20;;
19587;SDS011;9940;47.252;8.696;2023-04-16T11:40:03;1.52;;;1.27;;
19587;SDS011;9940;47.252;8.696;2023-04-16T11:42:33;1.88;;;1.40;;
19587;SDS011;9940;47.252;8.696;2023-04-16T11:45:10;2.45;;;1.63;;
19587;SDS011;9940;47.252;8.696;2023-04-16T11:47:56;1.30;;;1.08;;
19587;SDS011;9940;47.252;8.696;2023-04-16T11:50:25;1.80;;;1.58;;
19587;SDS011;9940;47.252;8.696;2023-04-16T11:52:52;1.83;;;1.35;;
19587;SDS011;9940;47.252;8.696;2023-04-16T11:55:19;2.55;;;1.80;;
19587;SDS011;9940;47.252;8.696;2023-04-16T11:57:45;1.90;;;1.70;;
19587;SDS011;9940;47.252;8.696;2023-04-16T12:00:14;2.50;;;1.88;;
19587;SDS011;9940;47.252;8.696;2023-04-16T12:05:52;3.95;;;2.00;;
19587;SDS011;9940;47.252;8.696;2023-04-16T12:08:03;1.70;;;1.60;;
19587;SDS011;9940;47.252;8.696;2023-04-16T12:10:34;2.83;;;1.75;;
19587;SDS011;9940;47.252;8.696;2023-04-16T12:15:45;1.90;;;1.80;;
19587;SDS011;9940;47.252;8.696;2023-04-16T12:18:18;1.90;;;1.70;;
19587;SDS011;9940;47.252;8.696;2023-04-16T12:20:47;3.10;;;2.00;;
19587;SDS011;9940;47.252;8.696;2023-04-16T12:23:51;2.63;;;2.00;;
19587;SDS011;9940;47.252;8.696;2023-04-16T12:26:11;2.22;;;1.92;;
19587;SDS011;9940;47.252;8.696;2023-04-16T12:28:38;1.90;;;1.60;;
19587;SDS011;9940;47.252;8.696;2023-04-16T12:31:06;2.22;;;1.90;;
19587;SDS011;9940;47.252;8.696;2023-04-16T12:33:31;2.55;;;1.80;;
19587;SDS011;9940;47.252;8.696;2023-04-16T12:36:00;2.35;;;2.15;;
19587;SDS011;9940;47.252;8.696;2023-04-16T12:38:27;2.28;;;2.08;;
19587;SDS011;9940;47.252;8.696;2023-04-16T12:40:53;3.13;;;2.17;;
19587;SDS011;9940;47.252;8.696;2023-04-16T12:43:21;5.38;;;2.30;;
19587;SDS011;9940;47.252;8.696;2023-04-16T12:45:49;2.30;;;2.00;;
19587;SDS011;9940;47.252;8.696;2023-04-16T12:48:15;2.20;;;1.95;;
19587;SDS011;9940;47.252;8.696;2023-04-16T12:50:43;2.80;;;2.47;;
19587;SDS011;9940;47.252;8.696;2023-04-16T12:53:08;2.35;;;2.10;;
19587;SDS011;9940;47.252;8.696;2023-04-16T12:55:34;3.15;;;2.13;;
19587;SDS011;9940;47.252;8.696;2023-04-16T12:58:00;2.28;;;2.08;;
19587;SDS011;9940;47.252;8.696;2023-04-16T13:00:25;2.30;;;2.10;;
19587;SDS011;9940;47.252;8.696;2023-04-16T13:02:53;3.05;;;2.75;;
19587;SDS011;9940;47.252;8.696;2023-04-16T13:05:19;2.50;;;2.30;;
19587;SDS011;9940;47.252;8.696;2023-04-16T13:07:47;3.25;;;2.38;;
19587;SDS011;9940;47.252;8.696;2023-04-16T13:10:13;2.58;;;2.35;;
19587;SDS011;9940;47.252;8.696;2023-04-16T13:12:41;2.97;;;2.67;;
19587;SDS011;9940;47.252;8.696;2023-04-16T13:15:06;2.60;;;2.40;;
19587;SDS011;9940;47.252;8.696;2023-04-16T13:17:33;4.63;;;2.28;;
19587;SDS011;9940;47.252;8.696;2023-04-16T13:20:01;3.05;;;2.75;;
19587;SDS011;9940;47.252;8.696;2023-04-16T13:22:29;2.90;;;2.70;;
19587;SDS011;9940;47.252;8.696;2023-04-16T13:24:57;2.70;;;2.20;;
19587;SDS011;9940;47.252;8.696;2023-04-16T13:27:22;2.78;;;2.45;;
19587;SDS011;9940;47.252;8.696;2023-04-16T13:29:48;3.25;;;2.90;;
19587;SDS011;9940;47.252;8.696;2023-04-16T13:32:14;3.20;;;2.67;;
19587;SDS011;9940;47.252;8.696;2023-04-16T13:34:45;2.90;;;2.53;;
19587;SDS011;9940;47.252;8.696;2023-04-16T13:37:12;4.22;;;3.15;;
19587;SDS011;9940;47.252;8.696;2023-04-16T13:39:38;3.10;;;2.63;;
19587;SDS011;9940;47.252;8.696;2023-04-16T13:42:08;4.20;;;2.63;;
19587;SDS011;9940;47.252;8.696;2023-04-16T13:44:37;3.10;;;2.80;;
19587;SDS011;9940;47.252;8.696;2023-04-16T13:47:02;3.00;;;2.70;;
19587;SDS011;9940;47.252;8.696;2023-04-16T13:49:28;3.83;;;2.88;;
19587;SDS011;9940;47.252;8.696;2023-04-16T13:51:57;4.25;;;3.03;;
19587;SDS011;9940;47.252;8.696;2023-04-16T13:54:22;4.03;;;2.67;;
19587;SDS011;9940;47.252;8.696;2023-04-16T13:56:48;2.78;;;2.40;;
19587;SDS011;9940;47.252;8.696;2023-04-16T13:59:15;2.80;;;2.60;;
19587;SDS011;9940;47.252;8.696;2023-04-16T15:17:44;5.80;;;3.80;;
19587;SDS011;9940;47.252;8.696;2023-04-16T15:20:10;4.10;;;3.55;;
19587;SDS011;9940;47.252;8.696;2023-04-16T15:22:36;3.95;;;3.55;;
19587;SDS011;9940;47.252;8.696;2023-04-16T15:25:02;3.90;;;3.50;;
19587;SDS011;9940;47.252;8.696;2023-04-16T15:27:29;4.38;;;3.72;;
19587;SDS011;9940;47.252;8.696;2023-04-16T15:29:56;6.47;;;4.55;;
19587;SDS011;9940;47.252;8.696;2023-04-16T15:32:22;5.63;;;4.43;;
19587;SDS011;9940;47.252;8.696;2023-04-16T15:34:48;5.63;;;4.30;;
19587;SDS011;9940;47.252;8.696;2023-04-16T15:37:14;5.68;;;3.83;;
19587;SDS011;9940;47.252;8.696;2023-04-16T15:39:40;4.40;;;3.50;;
19587;SDS011;9940;47.252;8.696;2023-04-16T15:42:06;4.97;;;3.80;;
19587;SDS011;9940;47.252;8.696;2023-04-16T15:44:34;5.45;;;3.83;;
19587;SDS011;9940;47.252;8.696;2023-04-16T15:47:00;7.57;;;5.82;;
19587;SDS011;9940;47.252;8.696;2023-04-16T15:49:25;4.68;;;3.70;;
19587;SDS011;9940;47.252;8.696;2023-04-16T15:51:51;4.95;;;3.85;;
19587;SDS011;9940;47.252;8.696;2023-04-16T15:54:17;5.10;;;3.92;;
19587;SDS011;9940;47.252;8.696;2023-04-16T15:56:43;4.20;;;3.75;;
19587;SDS011;9940;47.252;8.696;2023-04-16T15:59:11;6.18;;;4.00;;
19587;SDS011;9940;47.252;8.696;2023-04-16T16:01:40;4.20;;;3.55;;
19587;SDS011;9940;47.252;8.696;2023-04-16T16:04:06;5.72;;;3.83;;
19587;SDS011;9940;47.252;8.696;2023-04-16T16:06:31;8.18;;;4.13;;
19587;SDS011;9940;47.252;8.696;2023-04-16T16:09:01;6.97;;;4.22;;
19587;SDS011;9940;47.252;8.696;2023-04-16T16:11:27;5.22;;;4.28;;
19587;SDS011;9940;47.252;8.696;2023-04-16T16:13:53;5.85;;;4.22;;
19587;SDS011;9940;47.252;8.696;2023-04-16T16:16:21;5.65;;;4.55;;
19587;SDS011;9940;47.252;8.696;2023-04-16T16:18:47;6.03;;;4.50;;
19587;SDS011;9940;47.252;8.696;2023-04-16T16:21:12;6.40;;;4.53;;
19587;SDS011;9940;47.252;8.696;2023-04-16T16:23:40;5.65;;;4.10;;
19587;SDS011;9940;47.252;8.696;2023-04-16T16:26:06;7.63;;;4.93;;
19587;SDS011;9940;47.252;8.696;2023-04-16T16:28:34;7.28;;;5.18;;
19587;SDS011;9940;47.252;8.696;2023-04-16T16:31:05;6.93;;;4.80;;
19587;SDS011;9940;47.252;8.696;2023-04-16T16:33:36;6.95;;;5.22;;
19587;SDS011;9940;47.252;8.696;2023-04-16T16:36:04;6.70;;;5.22;;